Time;durP1;ratioP1;P1;durP2;ratioP2;P2;SDS_P1;SDS_P2;PMS_P1;PMS_P2;Temp;Humidity;BMP_temperature;BMP_pressure;BME280_temperature;BME280_humidity;BME280_pressure;Samples;Min_cycle;Max_cycle;Signal;HPM_P1;HPM_P2
2021/06/09 00:01:04;;;;;;;8.40;5.35;;;17.30;63.10;;;;;;6160001;23;20108;-73
2021/06/09 00:03:31;;;;;;;10.85;4.93;;;17.30;63.30;;;;;;6186378;23;20013;-73
2021/06/09 00:05:59;;;;;;;10.02;5.10;;;17.30;63.80;;;;;;6160266;23;20395;-73
2021/06/09 00:08:26;;;;;;;12.57;5.50;;;17.30;63.80;;;;;;6186190;23;20017;-73
2021/06/09 00:10:56;;;;;;;12.60;5.78;;;17.30;63.70;;;;;;6160136;23;20446;-73
2021/06/09 00:13:45;;;;;;;9.85;5.43;;;17.40;63.80;;;;;;6160780;23;20064;-73
2021/06/09 00:16:15;;;;;;;10.30;5.20;;;17.40;63.50;;;;;;6159874;23;20009;-73
2021/06/09 00:18:42;;;;;;;9.88;5.68;;;17.40;63.80;;;;;;6160054;23;20021;-73
2021/06/09 00:21:09;;;;;;;9.18;6.20;;;17.40;63.70;;;;;;6160252;23;20005;-73
2021/06/09 00:23:35;;;;;;;13.25;6.10;;;17.50;63.80;;;;;;6135311;23;20021;-73
2021/06/09 00:26:04;;;;;;;8.85;5.65;;;17.50;63.50;;;;;;6159798;23;20059;-73
2021/06/09 00:28:32;;;;;;;16.05;6.32;;;17.50;64.20;;;;;;6186033;23;20025;-73
2021/06/09 00:30:59;;;;;;;11.90;6.20;;;17.50;64.30;;;;;;6159880;23;20005;-73
2021/06/09 00:33:25;;;;;;;11.80;6.07;;;17.40;64.50;;;;;;6159763;23;20338;-73
2021/06/09 00:38:38;;;;;;;11.20;6.40;;;17.40;64.50;;;;;;6154859;23;20359;-73
2021/06/09 00:41:04;;;;;;;;;;;17.40;64.70;;;;;;6157107;23;20077;-73
2021/06/09 00:43:34;;;;;;;11.43;6.30;;;17.40;63.20;;;;;;6154741;23;19996;-73
2021/06/09 00:46:06;;;;;;;10.52;6.28;;;17.40;64.30;;;;;;6154954;23;20023;-73
2021/06/09 00:48:34;;;;;;;14.93;6.47;;;17.40;64.60;;;;;;6154695;23;20018;-73
2021/06/09 00:51:21;;;;;;;11.82;6.82;;;17.40;64.80;;;;;;6154763;23;20089;-73
2021/06/09 00:56:37;;;;;;;9.73;5.88;;;17.40;63.90;;;;;;6155022;23;19912;-73
2021/06/09 00:59:06;;;;;;;12.50;6.10;;;17.40;64.60;;;;;;6154799;23;20014;-73
2021/06/09 01:01:33;;;;;;;10.43;5.93;;;17.40;65.00;;;;;;6129936;23;20499;-73
2021/06/09 01:04:00;;;;;;;14.35;6.03;;;17.40;65.20;;;;;;6154681;23;20021;-73
2021/06/09 01:06:26;;;;;;;10.75;6.05;;;17.40;65.30;;;;;;6154475;23;20080;-73
2021/06/09 01:08:53;;;;;;;8.70;5.60;;;17.40;65.40;;;;;;6156077;23;20013;-73
2021/06/09 01:11:23;;;;;;;13.75;6.22;;;17.40;65.10;;;;;;6154488;23;20014;-73
2021/06/09 01:13:50;;;;;;;14.48;6.05;;;17.40;65.90;;;;;;6154576;23;20028;-73
2021/06/09 01:16:18;;;;;;;13.00;6.20;;;17.30;66.00;;;;;;6156066;23;20014;-73
2021/06/09 01:18:47;;;;;;;10.70;5.72;;;17.30;66.00;;;;;;6154502;23;20040;-73
2021/06/09 01:21:14;;;;;;;11.38;6.28;;;17.30;66.00;;;;;;6155987;23;20013;-73
2021/06/09 01:23:40;;;;;;;9.75;5.90;;;17.30;65.60;;;;;;6129677;23;20105;-73
2021/06/09 01:26:09;;;;;;;11.43;5.70;;;17.20;66.30;;;;;;6129823;23;20014;-73
2021/06/09 01:28:37;;;;;;;11.27;5.75;;;17.20;66.40;;;;;;6154230;23;20044;-73
2021/06/09 01:31:04;;;;;;;12.20;5.78;;;17.20;66.30;;;;;;6154273;23;20073;-73
2021/06/09 01:33:31;;;;;;;11.48;5.50;;;17.10;66.30;;;;;;6129645;23;20402;-73
2021/06/09 01:35:57;;;;;;;14.77;5.80;;;17.10;66.30;;;;;;6154330;23;20086;-73
2021/06/09 01:38:23;;;;;;;11.10;5.80;;;17.10;66.10;;;;;;6165863;23;20463;-73
2021/06/09 01:40:50;;;;;;;17.08;5.57;;;17.10;67.10;;;;;;6185456;23;20016;-73
2021/06/09 01:43:17;;;;;;;9.23;5.25;;;17.00;66.00;;;;;;6159232;23;20017;-73
2021/06/09 01:45:43;;;;;;;9.63;5.35;;;17.00;66.00;;;;;;6159325;23;20342;-73
2021/06/09 01:48:10;;;;;;;9.35;5.40;;;17.00;66.10;;;;;;6158870;23;20024;-73
2021/06/09 01:50:40;;;;;;;11.45;5.75;;;16.90;66.20;;;;;;6134373;23;20017;-73
2021/06/09 01:53:08;;;;;;;9.90;5.45;;;16.90;66.30;;;;;;6159394;23;20017;-73
2021/06/09 01:55:37;;;;;;;10.65;5.55;;;16.90;66.30;;;;;;6159063;23;20013;-73
2021/06/09 01:58:04;;;;;;;9.07;5.55;;;16.90;66.60;;;;;;6134320;23;20021;-74
2021/06/09 02:00:52;;;;;;;12.55;6.20;;;16.80;66.50;;;;;;6158999;23;20008;-73
2021/06/09 02:03:18;;;;;;;;;;;16.80;66.70;;;;;;6185908;23;20374;-73
2021/06/09 02:05:45;;;;;;;10.27;5.82;;;16.70;66.10;;;;;;6159131;23;19915;-73
2021/06/09 02:08:13;;;;;;;8.43;6.28;;;16.70;66.80;;;;;;6185293;23;20017;-73
2021/06/09 02:10:42;;;;;;;9.00;5.38;;;16.70;67.00;;;;;;6159074;23;20013;-73
2021/06/09 02:13:13;;;;;;;10.40;6.50;;;16.70;67.00;;;;;;6159177;23;20021;-73
2021/06/09 02:15:40;;;;;;;10.52;5.53;;;16.70;67.10;;;;;;6159043;23;20081;-73
2021/06/09 02:20:58;;;;;;;7.97;5.47;;;16.70;66.70;;;;;;6159561;23;20446;-73
2021/06/09 02:23:29;;;;;;;9.98;6.10;;;16.70;67.30;;;;;;6158724;23;20044;-73
2021/06/09 02:25:58;;;;;;;10.23;6.15;;;16.70;67.50;;;;;;6134358;23;20009;-73
2021/06/09 02:28:28;;;;;;;12.77;6.40;;;16.70;67.50;;;;;;6158777;23;20023;-73
2021/06/09 02:30:55;;;;;;;12.40;6.13;;;16.70;67.50;;;;;;6158970;23;20009;-73
2021/06/09 02:33:24;;;;;;;9.80;5.90;;;16.60;67.10;;;;;;6158692;23;20016;-73
2021/06/09 02:35:52;;;;;;;10.05;6.30;;;16.60;67.70;;;;;;6185052;23;20035;-73
2021/06/09 02:38:20;;;;;;;9.30;6.10;;;16.60;67.70;;;;;;6129062;23;20522;-74
2021/06/09 02:40:50;;;;;;;10.10;5.88;;;16.60;67.70;;;;;;6153920;23;20016;-73
2021/06/09 02:43:16;;;;;;;10.15;5.93;;;16.60;67.70;;;;;;6153855;23;20022;-73
2021/06/09 02:45:49;;;;;;;10.75;6.50;;;16.60;68.00;;;;;;6153842;23;20009;-74
2021/06/09 02:48:20;;;;;;;10.15;6.55;;;16.60;67.80;;;;;;6153765;23;20450;-73
2021/06/09 02:50:46;;;;;;;9.93;6.00;;;16.70;67.70;;;;;;6153898;23;20077;-73
2021/06/09 02:53:49;;;;;;;12.48;6.03;;;16.60;67.00;;;;;;6155752;23;20018;-73
2021/06/09 02:56:53;;;;;;;13.27;6.20;;;16.60;67.50;;;;;;6155305;23;20072;-73
2021/06/09 02:59:53;;;;;;;11.15;6.63;;;16.60;67.50;;;;;;6155448;23;20011;-73
2021/06/09 03:02:40;;;;;;;18.30;6.40;;;16.60;67.80;;;;;;6155492;23;20017;-73
2021/06/09 03:05:31;;;;;;;;;;;16.50;68.00;;;;;;6130404;23;20013;-73
2021/06/09 03:08:20;;;;;;;10.43;5.90;;;16.50;67.30;;;;;;6155070;23;19935;-74
2021/06/09 03:10:52;;;;;;;10.75;6.20;;;16.40;68.10;;;;;;6153870;23;20006;-73
2021/06/09 03:13:28;;;;;;;11.95;6.68;;;16.30;68.40;;;;;;6153624;23;20083;-73
2021/06/09 03:16:14;;;;;;;9.98;6.43;;;16.30;68.80;;;;;;6153838;23;20041;-73
2021/06/09 03:19:18;;;;;;;14.00;6.32;;;16.30;68.90;;;;;;6153682;23;20343;-73
2021/06/09 03:22:26;;;;;;;11.40;6.38;;;16.30;68.60;;;;;;6155565;23;20006;-73
2021/06/09 03:24:56;;;;;;;13.03;5.70;;;16.20;68.50;;;;;;6155917;23;20010;-73
2021/06/09 03:30:34;;;;;;;10.43;5.97;;;16.20;68.30;;;;;;6156889;23;20338;-73
2021/06/09 03:33:21;;;;;;;17.75;6.05;;;16.20;68.40;;;;;;6155354;23;20017;-73
2021/06/09 03:36:25;;;;;;;13.07;6.03;;;16.20;68.30;;;;;;6155618;23;20068;-73
2021/06/09 03:39:14;;;;;;;9.73;5.68;;;16.10;68.40;;;;;;6155227;23;20029;-73
2021/06/09 03:42:01;;;;;;;9.02;5.55;;;16.10;68.50;;;;;;6130765;23;20059;-73
2021/06/09 03:44:50;;;;;;;13.98;5.68;;;16.00;68.60;;;;;;6155374;23;20029;-73
2021/06/09 03:47:20;;;;;;;8.52;5.88;;;16.10;68.70;;;;;;6155364;23;20085;-73
2021/06/09 03:49:51;;;;;;;12.30;5.65;;;16.00;68.70;;;;;;6155504;23;20005;-73
2021/06/09 03:52:19;;;;;;;10.48;6.22;;;16.10;68.70;;;;;;6130883;23;20350;-73
2021/06/09 03:55:08;;;;;;;10.05;5.78;;;16.00;68.80;;;;;;6155405;23;20017;-73
2021/06/09 03:57:36;;;;;;;10.57;5.75;;;16.00;68.90;;;;;;6155205;23;20017;-73
2021/06/09 04:00:08;;;;;;;12.75;6.38;;;16.00;68.70;;;;;;6155536;23;20020;-73
2021/06/09 04:02:36;;;;;;;13.80;5.82;;;16.00;69.00;;;;;;6155379;23;20014;-73
2021/06/09 04:05:03;;;;;;;13.98;6.72;;;16.00;69.20;;;;;;6155307;23;20096;-73
2021/06/09 04:07:31;;;;;;;19.73;7.00;;;16.00;69.20;;;;;;6154790;23;20207;-73
2021/06/09 04:10:03;;;;;;;17.35;6.63;;;16.10;69.40;;;;;;6155136;23;20020;-73
2021/06/09 04:12:50;;;;;;;12.02;6.80;;;16.10;69.60;;;;;;6155305;23;20017;-73
2021/06/09 04:15:19;;;;;;;13.95;7.40;;;16.20;69.60;;;;;;6134927;23;20575;-73
2021/06/09 04:17:48;;;;;;;11.75;6.55;;;16.20;69.40;;;;;;6155274;23;20020;-73
2021/06/09 04:20:23;;;;;;;17.13;7.93;;;16.30;69.60;;;;;;6155145;23;20014;-73
2021/06/09 04:22:50;;;;;;;17.15;7.68;;;16.30;69.70;;;;;;6154865;23;20028;-73
2021/06/09 04:25:17;;;;;;;12.48;6.63;;;16.40;69.60;;;;;;6155055;23;20022;-73
2021/06/09 04:27:44;;;;;;;13.48;6.93;;;16.40;69.70;;;;;;6154830;23;20025;-73
2021/06/09 04:30:12;;;;;;;12.65;6.97;;;16.40;69.90;;;;;;6130264;23;20014;-73
2021/06/09 04:33:00;;;;;;;32.40;8.23;;;16.40;69.90;;;;;;6129939;23;20022;-73
2021/06/09 04:35:46;;;;;;;13.63;7.63;;;16.50;70.00;;;;;;6154930;23;20013;-73
2021/06/09 04:38:16;;;;;;;11.77;6.78;;;16.60;69.90;;;;;;6163869;23;20013;-73
2021/06/09 04:40:43;;;;;;;11.85;6.95;;;16.70;70.00;;;;;;6135314;23;20461;-73
2021/06/09 04:43:11;;;;;;;13.25;7.47;;;16.70;69.90;;;;;;6186578;23;20037;-73
2021/06/09 04:45:38;;;;;;;13.20;7.78;;;16.80;70.00;;;;;;6159358;23;20012;-73
2021/06/09 04:48:23;;;;;;;15.55;7.25;;;16.80;70.00;;;;;;6186445;23;20017;-73
2021/06/09 04:50:50;;;;;;;18.05;7.63;;;16.90;70.30;;;;;;6159765;23;20017;-73
2021/06/09 04:53:19;;;;;;;12.00;7.50;;;16.90;70.20;;;;;;6159498;23;20013;-73
2021/06/09 04:56:05;;;;;;;12.57;8.35;;;17.00;70.40;;;;;;6135004;23;20430;-73
2021/06/09 04:58:31;;;;;;;14.45;7.47;;;17.10;70.50;;;;;;6159641;23;20040;-73
2021/06/09 05:00:59;;;;;;;13.45;8.23;;;17.20;70.80;;;;;;6185821;23;20084;-73
2021/06/09 05:03:25;;;;;;;14.82;8.00;;;17.20;71.10;;;;;;6185810;23;20013;-73
2021/06/09 05:05:51;;;;;;;17.70;8.05;;;17.30;71.40;;;;;;6185892;23;20035;-73
2021/06/09 05:08:18;;;;;;;;;;;17.30;71.20;;;;;;6160091;23;20442;-73
2021/06/09 05:10:46;;;;;;;14.68;8.63;;;17.40;70.40;;;;;;6159521;23;20325;-78
2021/06/09 05:13:35;;;;;;;19.73;7.63;;;17.40;70.90;;;;;;6160195;23;20055;-73
2021/06/09 05:16:21;;;;;;;11.15;8.00;;;17.50;71.50;;;;;;6185800;23;20334;-73
2021/06/09 05:18:53;;;;;;;14.90;7.53;;;17.50;71.50;;;;;;6159567;23;20009;-72
2021/06/09 05:21:25;;;;;;;12.15;8.20;;;17.50;71.50;;;;;;6159375;23;20013;-73
2021/06/09 05:23:54;;;;;;;14.88;7.85;;;17.70;71.90;;;;;;6134845;23;20459;-73
2021/06/09 05:26:22;;;;;;;11.73;7.90;;;17.70;72.10;;;;;;6159118;23;20096;-73
2021/06/09 05:29:08;;;;;;;19.92;8.52;;;17.80;72.20;;;;;;6134694;23;20036;-72
2021/06/09 05:31:36;;;;;;;13.63;7.32;;;17.90;72.00;;;;;;6185640;23;20332;-73
2021/06/09 05:34:04;;;;;;;13.02;8.10;;;18.00;71.80;;;;;;6185603;23;20013;-72
2021/06/09 05:36:31;;;;;;;13.75;7.57;;;18.10;71.90;;;;;;6159201;23;20017;-73
2021/06/09 05:38:57;;;;;;;13.38;7.78;;;18.10;72.30;;;;;;6134328;23;20016;-73
2021/06/09 05:41:25;;;;;;;10.90;7.75;;;18.30;72.70;;;;;;6159128;23;20338;-73
2021/06/09 05:43:52;;;;;;;11.75;7.45;;;18.30;72.80;;;;;;6134171;23;20009;-73
2021/06/09 05:46:19;;;;;;;12.95;7.55;;;18.40;72.50;;;;;;6158999;23;20036;-73
2021/06/09 05:48:48;;;;;;;10.23;7.03;;;18.50;72.50;;;;;;6159625;23;20012;-73
2021/06/09 05:51:17;;;;;;;11.15;6.65;;;18.60;72.40;;;;;;6159233;23;20013;-73
2021/06/09 05:53:44;;;;;;;13.35;6.93;;;18.70;72.10;;;;;;6185437;23;20016;-73
2021/06/09 05:56:11;;;;;;;12.25;7.50;;;18.80;71.70;;;;;;6159246;23;20016;-72
2021/06/09 05:58:39;;;;;;;14.73;7.10;;;18.90;71.30;;;;;;6185395;23;20052;-72
2021/06/09 06:01:10;;;;;;;12.82;6.78;;;19.00;71.30;;;;;;6185474;23;20025;-73
2021/06/09 06:03:40;;;;;;;17.17;8.20;;;19.10;71.40;;;;;;6159120;23;20013;-73
2021/06/09 06:06:10;;;;;;;11.50;8.15;;;19.30;71.10;;;;;;6159262;23;20005;-73
2021/06/09 06:08:40;;;;;;;12.32;6.90;;;19.40;70.80;;;;;;6185465;23;20009;-73
2021/06/09 06:11:11;;;;;;;17.30;7.28;;;19.50;70.70;;;;;;6134415;23;20013;-73
2021/06/09 06:13:41;;;;;;;12.65;7.47;;;19.70;70.40;;;;;;6159319;23;20064;-73
2021/06/09 06:16:08;;;;;;;13.40;7.03;;;19.80;70.10;;;;;;6159306;23;20342;-73
2021/06/09 06:18:37;;;;;;;13.00;7.18;;;19.90;70.90;;;;;;6158833;23;20013;-73
2021/06/09 06:21:07;;;;;;;15.35;7.45;;;20.00;69.40;;;;;;6134339;23;20100;-73
2021/06/09 06:23:36;;;;;;;10.60;6.80;;;20.20;69.20;;;;;;6158891;23;20037;-73
2021/06/09 06:26:03;;;;;;;12.20;7.13;;;20.30;68.50;;;;;;6158960;23;20335;-73
2021/06/09 06:28:32;;;;;;;15.40;7.15;;;20.50;68.10;;;;;;6184921;23;20093;-73
2021/06/09 06:31:00;;;;;;;14.10;7.63;;;20.60;68.10;;;;;;6185199;23;20012;-73
2021/06/09 06:33:28;;;;;;;14.73;7.90;;;20.70;67.80;;;;;;6158624;23;20382;-73
2021/06/09 06:36:16;;;;;;;14.20;6.82;;;20.80;67.10;;;;;;6158961;23;20056;-73
2021/06/09 06:38:42;;;;;;;15.30;7.93;;;21.10;67.40;;;;;;6128958;23;20013;-73
2021/06/09 06:41:10;;;;;;;11.90;7.38;;;21.10;67.50;;;;;;6129096;23;20033;-73
2021/06/09 06:43:38;;;;;;;9.35;6.28;;;21.30;66.70;;;;;;6153890;23;20010;-73
2021/06/09 06:46:09;;;;;;;15.77;7.15;;;21.50;66.40;;;;;;6153961;23;20012;-73
2021/06/09 06:48:36;;;;;;;11.45;6.72;;;21.60;66.30;;;;;;6153601;23;20017;-74
2021/06/09 06:51:03;;;;;;;9.23;6.97;;;21.80;65.40;;;;;;6129191;23;20005;-72
2021/06/09 06:53:31;;;;;;;19.75;8.77;;;22.00;64.60;;;;;;6153701;23;20443;-73
2021/06/09 06:56:17;;;;;;;12.68;7.75;;;22.10;63.40;;;;;;6155427;23;20005;-73
2021/06/09 06:59:06;;;;;;;19.02;7.25;;;22.30;64.10;;;;;;6131339;23;20431;-73
2021/06/09 07:01:36;;;;;;;12.35;7.07;;;22.50;63.80;;;;;;6131151;23;20029;-73
2021/06/09 07:04:04;;;;;;;8.70;6.60;;;22.60;62.30;;;;;;6131146;23;20029;-73
2021/06/09 07:06:33;;;;;;;12.35;7.25;;;22.80;61.30;;;;;;6155700;23;20022;-73
2021/06/09 07:09:02;;;;;;;16.83;7.05;;;23.10;60.60;;;;;;6155691;23;20018;-74
2021/06/09 07:11:29;;;;;;;15.10;7.93;;;23.20;59.10;;;;;;6155621;23;20014;-73
2021/06/09 07:13:57;;;;;;;13.70;7.00;;;23.50;58.00;;;;;;6155738;23;20005;-73
2021/06/09 07:16:29;;;;;;;10.38;6.32;;;23.70;56.30;;;;;;6155462;23;20045;-73
2021/06/09 07:18:58;;;;;;;11.20;6.88;;;23.80;54.80;;;;;;6157250;23;20097;-73
2021/06/09 07:21:24;;;;;;;11.98;7.25;;;23.90;53.90;;;;;;6157022;23;20092;-73
2021/06/09 07:23:51;;;;;;;10.48;8.07;;;24.00;53.10;;;;;;6155659;23;20364;-73
2021/06/09 07:26:18;;;;;;;10.63;7.53;;;24.00;52.90;;;;;;6155486;23;20027;-73
2021/06/09 07:29:04;;;;;;;14.90;7.15;;;24.20;52.00;;;;;;6155557;23;20320;-72
2021/06/09 07:31:35;;;;;;;12.40;7.35;;;24.30;51.60;;;;;;6157124;23;20328;-73
2021/06/09 07:34:03;;;;;;;10.10;7.07;;;24.40;50.80;;;;;;6155597;23;20010;-73
2021/06/09 07:37:08;;;;;;;12.45;6.90;;;24.50;50.00;;;;;;6131074;23;20080;-74
2021/06/09 07:40:30;;;;;;;11.93;7.00;;;24.70;50.30;;;;;;6155287;23;20461;-73
2021/06/09 07:43:55;;;;;;;10.70;6.68;;;24.70;49.50;;;;;;6157369;23;20064;-73
2021/06/09 07:46:28;;;;;;;13.57;6.65;;;24.90;48.70;;;;;;6155668;23;20463;-73
2021/06/09 07:48:57;;;;;;;13.10;6.82;;;25.00;47.00;;;;;;6155331;23;20017;-73
2021/06/09 07:51:28;;;;;;;10.50;6.93;;;25.00;47.20;;;;;;6155135;23;20017;-73
2021/06/09 07:53:57;;;;;;;9.95;6.78;;;25.10;46.50;;;;;;6155380;23;20088;-73
2021/06/09 07:56:31;;;;;;;15.10;7.75;;;25.20;46.30;;;;;;6130481;23;20403;-73
2021/06/09 07:58:58;;;;;;;11.75;6.70;;;25.30;45.60;;;;;;6155383;23;20447;-73
2021/06/09 08:01:25;;;;;;;11.55;6.80;;;25.30;45.70;;;;;;6130397;23;20017;-73
2021/06/09 08:03:51;;;;;;;13.00;7.05;;;25.40;44.90;;;;;;6130732;23;20052;-73
2021/06/09 08:06:18;;;;;;;9.45;6.35;;;25.40;44.80;;;;;;6156101;23;20024;-73
2021/06/09 08:08:46;;;;;;;11.18;6.75;;;25.50;45.20;;;;;;6130598;23;20493;-73
2021/06/09 08:11:14;;;;;;;15.23;6.97;;;25.60;44.80;;;;;;6156546;23;20020;-73
2021/06/09 08:13:43;;;;;;;14.93;7.63;;;25.70;44.70;;;;;;6130226;23;20508;-73
2021/06/09 08:16:31;;;;;;;15.18;7.43;;;25.70;44.40;;;;;;6155005;23;20036;-73
2021/06/09 08:18:57;;;;;;;9.50;6.97;;;25.80;44.00;;;;;;6155087;23;20006;-74
2021/06/09 08:21:25;;;;;;;9.50;6.97;;;26.00;44.60;;;;;;6130093;23;20025;-73
2021/06/09 08:23:53;;;;;;;11.40;7.32;;;26.00;43.60;;;;;;6154940;23;20016;-73
2021/06/09 08:26:23;;;;;;;15.32;7.55;;;26.10;43.70;;;;;;6154739;23;20036;-73
2021/06/09 08:28:52;;;;;;;9.18;6.63;;;26.10;44.00;;;;;;6130783;23;20009;-73
2021/06/09 08:31:24;;;;;;;10.93;6.97;;;26.20;43.80;;;;;;6154796;23;20379;-73
2021/06/09 08:33:53;;;;;;;9.70;6.75;;;26.20;43.30;;;;;;6155063;23;20009;-73
2021/06/09 08:36:21;;;;;;;9.93;6.82;;;26.20;43.20;;;;;;6154793;23;20088;-73
2021/06/09 08:38:51;;;;;;;10.45;6.93;;;26.30;43.20;;;;;;6154750;23;20018;-73
2021/06/09 08:41:21;;;;;;;9.98;7.20;;;26.40;43.10;;;;;;6155290;23;20096;-74
2021/06/09 08:43:48;;;;;;;10.80;6.93;;;26.40;43.20;;;;;;6156362;23;20005;-73
2021/06/09 08:46:17;;;;;;;13.63;6.80;;;26.50;42.30;;;;;;6154801;23;20018;-74
2021/06/09 08:48:46;;;;;;;11.90;6.90;;;26.50;42.50;;;;;;6129954;23;20112;-73
2021/06/09 08:51:17;;;;;;;13.05;8.05;;;26.50;42.50;;;;;;6154698;23;20153;-73
2021/06/09 08:54:07;;;;;;;15.73;7.32;;;26.60;42.70;;;;;;6154771;23;20013;-73
2021/06/09 08:56:37;;;;;;;13.95;7.00;;;26.70;42.50;;;;;;6154926;23;20032;-73
2021/06/09 08:59:04;;;;;;;14.55;6.95;;;26.70;42.30;;;;;;6154801;23;20016;-73
2021/06/09 09:01:32;;;;;;;10.45;6.90;;;26.80;42.60;;;;;;6154456;23;20021;-73
2021/06/09 09:04:01;;;;;;;11.30;7.43;;;26.80;42.00;;;;;;6154598;23;20014;-73
2021/06/09 09:06:28;;;;;;;11.88;6.65;;;27.00;43.30;;;;;;6154611;23;20021;-73
2021/06/09 09:08:55;;;;;;;12.07;7.25;;;27.10;42.60;;;;;;6154564;23;20010;-73
2021/06/09 09:11:23;;;;;;;10.25;7.03;;;27.10;42.70;;;;;;6156294;23;20165;-73
2021/06/09 09:13:49;;;;;;;9.90;6.50;;;27.20;41.90;;;;;;6130014;23;20041;-73
2021/06/09 09:16:16;;;;;;;17.27;7.15;;;27.20;42.20;;;;;;6154760;23;20022;-73
2021/06/09 09:19:04;;;;;;;12.48;6.78;;;27.30;42.50;;;;;;6129717;23;20009;-74
2021/06/09 09:21:48;;;;;;;15.93;7.88;;;27.50;42.50;;;;;;6155886;23;20084;-73
2021/06/09 09:24:16;;;;;;;13.30;7.53;;;27.70;42.10;;;;;;6154364;23;20375;-73
2021/06/09 09:26:50;;;;;;;10.45;7.15;;;27.90;41.70;;;;;;6154400;23;20076;-74
2021/06/09 09:29:21;;;;;;;9.90;6.80;;;28.20;41.50;;;;;;6155912;23;20114;-73
2021/06/09 09:32:08;;;;;;;12.45;7.43;;;28.40;41.10;;;;;;6129684;23;20080;-73
2021/06/09 09:34:52;;;;;;;;;;;28.80;39.60;;;;;;6154926;23;20021;-73
2021/06/09 09:37:38;;;;;;;11.85;6.53;;;29.50;39.90;;;;;;6129550;23;20242;-73
2021/06/09 09:40:17;;;;;;;10.82;7.30;;;30.10;38.30;;;;;;6129734;23;20340;-74
2021/06/09 09:42:48;;;;;;;9.13;7.20;;;30.70;36.70;;;;;;6156265;23;20085;-73
2021/06/09 09:45:37;;;;;;;16.70;8.25;;;31.10;36.20;;;;;;6154232;23;20012;-74
2021/06/09 09:48:22;;;;;;;11.13;7.18;;;31.80;35.10;;;;;;6156095;23;20014;-74
2021/06/09 09:51:08;;;;;;;11.48;7.47;;;32.50;34.60;;;;;;6154560;23;20097;-73
2021/06/09 09:53:38;;;;;;;9.85;7.13;;;33.10;34.00;;;;;;6154143;23;20013;-73
2021/06/09 09:56:43;;;;;;;9.57;6.93;;;33.60;31.70;;;;;;6154346;23;20045;-74
2021/06/09 09:59:13;;;;;;;9.43;6.75;;;34.00;32.60;;;;;;6154176;23;20062;-73
2021/06/09 10:01:45;;;;;;;9.32;6.43;;;34.50;30.20;;;;;;6153908;23;20071;-73
2021/06/09 10:04:16;;;;;;;10.30;6.85;;;34.90;29.40;;;;;;6154201;23;20435;-73
2021/06/09 10:07:02;;;;;;;10.85;7.38;;;35.20;28.90;;;;;;6154122;23;20060;-74
2021/06/09 10:09:47;;;;;;;10.35;6.53;;;35.50;29.00;;;;;;6153925;23;20469;-73
2021/06/09 10:12:16;;;;;;;7.97;6.45;;;36.20;28.90;;;;;;6153902;23;20024;-74
2021/06/09 10:14:46;;;;;;;9.75;6.45;;;36.60;27.60;;;;;;6154176;23;20036;-74
2021/06/09 10:17:36;;;;;;;11.45;6.93;;;37.10;27.10;;;;;;6129714;23;20025;-74
2021/06/09 10:20:06;;;;;;;8.43;6.60;;;37.70;26.50;;;;;;6156026;23;20009;-74
2021/06/09 10:22:52;;;;;;;10.73;6.78;;;38.20;26.10;;;;;;6155712;23;20021;-73
2021/06/09 10:25:19;;;;;;;8.35;6.82;;;38.80;25.90;;;;;;6153901;23;20037;-74
2021/06/09 10:27:51;;;;;;;11.23;6.63;;;39.30;24.60;;;;;;6153916;23;20009;-73
2021/06/09 10:30:20;;;;;;;11.93;6.63;;;39.80;23.80;;;;;;6129343;23;20060;-74
2021/06/09 10:33:09;;;;;;;9.93;6.15;;;40.00;23.60;;;;;;6155858;23;20014;-74
2021/06/09 10:35:42;;;;;;;8.35;6.50;;;40.40;23.00;;;;;;6153408;23;20022;-74
2021/06/09 10:38:09;;;;;;;10.50;6.15;;;40.80;22.20;;;;;;6161608;23;20025;-74
2021/06/09 10:40:36;;;;;;;10.43;6.70;;;41.30;21.90;;;;;;6158935;23;20089;-74
2021/06/09 10:43:08;;;;;;;8.75;6.15;;;41.80;21.60;;;;;;6158981;23;20017;-74
2021/06/09 10:45:36;;;;;;;9.68;6.13;;;42.20;21.00;;;;;;6185080;23;20041;-74
2021/06/09 10:48:04;;;;;;;8.38;6.65;;;42.60;20.50;;;;;;6158957;23;20068;-74
2021/06/09 10:50:31;;;;;;;9.18;6.22;;;43.10;20.60;;;;;;6158826;23;20013;-74
2021/06/09 10:52:58;;;;;;;8.07;6.18;;;43.60;19.40;;;;;;6134214;23;20335;-74
2021/06/09 10:55:24;;;;;;;17.17;6.80;;;43.80;19.00;;;;;;6134463;23;20009;-74
2021/06/09 10:57:52;;;;;;;8.68;6.63;;;44.10;18.70;;;;;;6158879;23;20063;-74
2021/06/09 11:00:19;;;;;;;9.30;6.13;;;44.50;18.60;;;;;;6158806;23;20013;-74
2021/06/09 11:02:49;;;;;;;13.88;6.20;;;44.70;18.20;;;;;;6158853;23;20009;-75
2021/06/09 11:05:15;;;;;;;8.32;6.30;;;45.20;18.30;;;;;;6158838;23;20394;-75
2021/06/09 11:07:44;;;;;;;6.78;5.47;;;45.50;16.80;;;;;;6133638;23;20013;-74
2021/06/09 11:10:29;;;;;;;10.60;5.80;;;45.70;17.70;;;;;;6184987;23;20017;-74
2021/06/09 11:12:55;;;;;;;10.80;6.43;;;46.20;17.70;;;;;;6185363;23;20013;-74
2021/06/09 11:15:32;;;;;;;8.55;5.95;;;46.60;17.20;;;;;;6158445;23;20017;-74
2021/06/09 11:18:02;;;;;;;7.32;6.03;;;46.80;16.90;;;;;;6185346;23;20084;-74
2021/06/09 11:20:34;;;;;;;9.73;5.80;;;47.10;17.10;;;;;;6158869;23;20506;-74
2021/06/09 11:23:10;;;;;;;12.35;6.97;;;47.30;16.60;;;;;;6134105;23;20080;-74
2021/06/09 11:25:38;;;;;;;12.70;6.82;;;47.60;16.60;;;;;;6184885;23;20349;-74
2021/06/09 11:28:32;;;;;;;12.02;6.05;;;47.80;15.90;;;;;;6158923;23;20009;-74
2021/06/09 11:31:14;;;;;;;21.13;7.43;;;47.90;16.10;;;;;;6184883;23;20017;-74
2021/06/09 11:34:02;;;;;;;9.43;6.30;;;47.70;15.90;;;;;;6158981;23;20017;-74
2021/06/09 11:36:51;;;;;;;8.63;6.43;;;48.10;16.00;;;;;;6133901;23;20446;-74
2021/06/09 11:39:35;;;;;;;7.85;6.20;;;48.40;15.50;;;;;;6158896;23;20446;-74
2021/06/09 11:42:09;;;;;;;7.82;6.68;;;48.80;15.50;;;;;;6160440;23;20013;-74
2021/06/09 11:47:27;;;;;;;10.05;6.38;;;49.10;15.10;;;;;;6164798;23;20013;-74
2021/06/09 11:50:33;;;;;;;9.98;6.63;;;49.10;14.90;;;;;;6186640;23;20009;-74
2021/06/09 11:55:25;;;;;;;9.63;6.22;;;48.60;15.00;;;;;;6186822;23;20323;-74
2021/06/09 11:58:12;;;;;;;12.98;6.20;;;49.00;15.20;;;;;;6186984;23;20017;-74
2021/06/09 12:01:01;;;;;;;16.73;6.20;;;49.20;15.10;;;;;;6160241;23;20016;-75
2021/06/09 12:03:27;;;;;;;9.45;5.93;;;49.70;14.80;;;;;;6160177;23;20017;-74
2021/06/09 12:05:53;;;;;;;11.75;7.50;;;49.70;14.40;;;;;;6135475;23;20005;-74
2021/06/09 12:08:21;;;;;;;8.85;6.68;;;49.70;14.40;;;;;;6159910;23;20092;-75
2021/06/09 12:11:05;;;;;;;10.10;6.68;;;49.80;14.20;;;;;;6135740;23;20092;-74
2021/06/09 12:13:32;;;;;;;9.13;6.22;;;50.00;14.30;;;;;;6160117;23;20056;-74
2021/06/09 12:16:21;;;;;;;9.75;5.95;;;49.70;13.30;;;;;;6160136;23;20009;-74
2021/06/09 12:18:49;;;;;;;10.45;5.72;;;49.10;14.90;;;;;;6186376;23;20060;-74
2021/06/09 12:21:19;;;;;;;16.52;6.78;;;49.50;14.30;;;;;;6159977;23;20017;-74
2021/06/09 12:24:04;;;;;;;11.15;5.72;;;49.80;14.10;;;;;;6186299;23;20086;-74
2021/06/09 12:26:30;;;;;;;7.47;6.07;;;50.00;14.20;;;;;;6135277;23;20053;-74
2021/06/09 12:29:15;;;;;;;13.40;6.20;;;50.20;13.60;;;;;;6159705;23;20013;-75
2021/06/09 12:31:42;;;;;;;9.85;6.47;;;50.30;13.90;;;;;;6159656;23;20104;-74
2021/06/09 12:34:40;;;;;;;7.75;6.05;;;50.30;13.60;;;;;;6160124;23;20380;-75
2021/06/09 12:37:09;;;;;;;8.00;6.13;;;48.50;14.40;;;;;;6186372;23;20362;-74
2021/06/09 12:39:38;;;;;;;9.27;6.15;;;47.40;15.10;;;;;;6154672;23;20390;-74
2021/06/09 12:42:23;;;;;;;7.88;5.90;;;47.90;14.70;;;;;;6154989;23;20068;-75
2021/06/09 12:44:49;;;;;;;8.05;6.10;;;47.90;14.50;;;;;;6156456;23;20056;-73
2021/06/09 12:47:56;;;;;;;7.18;5.63;;;46.50;15.30;;;;;;6154845;23;20044;-74
2021/06/09 12:51:02;;;;;;;;;;;44.30;16.80;;;;;;6155436;23;20019;-74
2021/06/09 12:53:32;;;;;;;9.70;6.45;;;43.30;17.40;;;;;;6155970;23;20326;-73
2021/06/09 12:56:08;;;;;;;7.80;5.70;;;44.10;17.10;;;;;;6154940;23;20009;-73
2021/06/09 12:58:38;;;;;;;6.90;5.20;;;44.90;16.00;;;;;;6154719;23;20439;-73
2021/06/09 13:03:59;;;;;;;8.18;5.20;;;45.60;15.80;;;;;;6123812;23;20010;-74
2021/06/09 13:06:26;;;;;;;9.82;5.47;;;45.70;15.60;;;;;;6099004;23;20493;-73
2021/06/09 13:08:57;;;;;;;8.82;5.00;;;45.00;15.90;;;;;;6123872;23;20013;-73
2021/06/09 13:11:25;;;;;;;7.88;4.75;;;44.40;16.30;;;;;;6123620;23;20089;-73
2021/06/09 13:14:11;;;;;;;12.57;5.05;;;43.40;17.10;;;;;;6099396;23;20020;-73
2021/06/09 13:16:42;;;;;;;11.30;5.75;;;42.20;17.90;;;;;;6099199;23;20089;-73
2021/06/09 13:19:29;;;;;;;6.50;5.07;;;41.40;18.70;;;;;;6099375;23;20014;-73
2021/06/09 13:21:56;;;;;;;9.63;4.70;;;40.50;18.60;;;;;;6099230;23;20100;-73
2021/06/09 13:24:40;;;;;;;8.23;5.65;;;40.00;19.80;;;;;;6123531;23;20076;-74
2021/06/09 13:27:25;;;;;;;6.93;4.90;;;39.30;19.70;;;;;;6099120;23;20024;-73
2021/06/09 13:29:55;;;;;;;8.38;5.00;;;38.80;19.80;;;;;;6123600;23;20028;-73
2021/06/09 13:32:26;;;;;;;6.10;4.55;;;38.40;19.80;;;;;;6099097;23;20052;-73